Time;durP1;ratioP1;P1;durP2;ratioP2;P2;SDS_P1;SDS_P2;PMS_P1;PMS_P2;Temp;Humidity;BMP_temperature;BMP_pressure;BME280_temperature;BME280_humidity;BME280_pressure;Samples;Min_cycle;Max_cycle;Signal;HPM_P1;HPM_P2
2023/07/08 00:00:20;;;;;;;8.05;4.60;;;23.10;11.90;;;;;;5071182;28;20380;-72
2023/07/08 00:02:45;;;;;;;7.55;4.75;;;23.00;12.30;;;;;;5070663;28;20490;-73
2023/07/08 00:05:14;;;;;;;9.03;4.60;;;22.90;12.50;;;;;;5071421;28;20420;-73
2023/07/08 00:07:41;;;;;;;8.30;4.30;;;23.00;12.40;;;;;;5071077;28;20745;-72
2023/07/08 00:10:21;;;;;;;8.00;4.85;;;23.00;12.50;;;;;;5071233;28;20883;-72
2023/07/08 00:12:50;;;;;;;9.80;4.65;;;22.90;12.90;;;;;;5052609;28;20939;-73
2023/07/08 00:15:16;;;;;;;8.75;5.00;;;22.80;12.40;;;;;;5070753;28;20740;-73
2023/07/08 00:17:43;;;;;;;6.60;4.80;;;22.80;12.60;;;;;;5071425;28;20376;-71
2023/07/08 00:20:19;;;;;;;7.07;4.50;;;23.00;12.00;;;;;;5072109;28;20412;-73
2023/07/08 00:22:49;;;;;;;5.47;4.37;;;22.90;12.30;;;;;;5070470;28;20368;-72
2023/07/08 00:25:21;;;;;;;8.60;4.90;;;22.80;12.50;;;;;;5070396;28;20384;-72
2023/07/08 00:27:48;;;;;;;6.68;4.20;;;22.80;12.90;;;;;;5070735;28;20729;-73
2023/07/08 00:30:28;;;;;;;9.00;4.70;;;22.90;13.30;;;;;;5070767;28;20713;-73
2023/07/08 00:32:55;;;;;;;7.40;4.90;;;23.20;12.90;;;;;;5070162;28;20791;-73
2023/07/08 00:35:22;;;;;;;6.85;4.50;;;23.30;12.70;;;;;;5070451;28;20392;-73
2023/07/08 00:37:52;;;;;;;8.30;4.90;;;23.20;12.70;;;;;;5074386;28;20386;-73
2023/07/08 00:40:20;;;;;;;8.63;4.82;;;23.10;12.90;;;;;;5074430;28;20378;-73
2023/07/08 00:42:47;;;;;;;10.55;5.05;;;23.10;12.90;;;;;;5071389;28;20384;-73
2023/07/08 00:45:29;;;;;;;9.43;5.00;;;23.00;13.00;;;;;;5071254;28;20388;-73
2023/07/08 00:48:06;;;;;;;7.18;4.85;;;22.80;13.10;;;;;;5071750;28;20466;-73
2023/07/08 00:50:32;;;;;;;8.95;5.30;;;22.70;13.90;;;;;;5071586;28;20394;-73
2023/07/08 00:53:25;;;;;;;10.30;4.85;;;22.80;14.50;;;;;;5071343;28;20384;-73
2023/07/08 00:56:06;;;;;;;7.82;5.07;;;23.10;14.70;;;;;;5074356;28;20371;-74
2023/07/08 00:58:38;;;;;;;9.85;4.80;;;23.20;14.30;;;;;;5072015;28;20383;-74
2023/07/08 01:01:05;;;;;;;9.40;4.90;;;22.90;14.20;;;;;;5069900;28;20391;-74
2023/07/08 01:03:34;;;;;;;10.05;6.10;;;22.70;14.70;;;;;;5071521;28;20384;-73
2023/07/08 01:06:00;;;;;;;8.00;5.40;;;22.50;15.10;;;;;;5066404;28;20408;-73
2023/07/08 01:08:28;;;;;;;8.40;4.95;;;22.30;15.10;;;;;;5070466;28;20854;-73
2023/07/08 01:11:01;;;;;;;5.60;4.60;;;22.20;15.30;;;;;;5055381;28;20483;-74
2023/07/08 01:13:31;;;;;;;8.50;5.60;;;22.20;15.50;;;;;;5088791;22;20529;-78
2023/07/08 01:15:57;;;;;;;8.30;5.17;;;22.30;15.60;;;;;;5067797;28;20463;-78
2023/07/08 01:18:24;;;;;;;10.57;7.50;;;22.20;16.00;;;;;;5075761;28;20399;-78
2023/07/08 01:20:51;;;;;;;11.20;6.80;;;22.10;16.30;;;;;;5068931;28;20870;-78
2023/07/08 01:23:18;;;;;;;7.40;5.50;;;22.00;16.70;;;;;;5095123;28;20374;-77
2023/07/08 01:25:45;;;;;;;9.60;5.93;;;22.00;17.00;;;;;;5088670;28;20777;-76
2023/07/08 01:28:11;;;;;;;9.07;5.50;;;22.10;16.90;;;;;;5054158;28;20389;-76
2023/07/08 01:30:37;;;;;;;9.43;5.40;;;22.00;17.00;;;;;;5069093;28;20391;-73
2023/07/08 01:33:12;;;;;;;8.60;5.40;;;22.20;16.60;;;;;;5082748;28;20404;-75
2023/07/08 01:35:37;;;;;;;7.30;4.90;;;22.50;16.30;;;;;;5094021;28;20386;-74
2023/07/08 01:38:05;;;;;;;8.73;5.40;;;22.50;16.30;;;;;;5094296;28;20386;-74
2023/07/08 01:43:53;;;;;;;6.60;4.80;;;22.00;17.50;;;;;;5093832;28;20366;-74
2023/07/08 01:46:23;;;;;;;9.18;5.05;;;21.80;18.10;;;;;;5093891;28;20413;-74
2023/07/08 01:49:01;;;;;;;9.25;4.25;;;21.80;18.70;;;;;;5093711;28;20374;-74
2023/07/08 01:51:27;;;;;;;8.07;4.80;;;21.70;18.90;;;;;;5093532;28;20374;-75
2023/07/08 01:53:53;;;;;;;7.15;5.15;;;21.70;19.20;;;;;;5093532;28;20431;-74
2023/07/08 01:56:18;;;;;;;9.07;5.20;;;21.60;19.40;;;;;;5093856;28;20984;-74
2023/07/08 01:58:44;;;;;;;6.37;4.70;;;21.50;19.90;;;;;;5093586;28;20378;-74
2023/07/08 02:01:10;;;;;;;10.70;5.20;;;21.50;20.20;;;;;;5093628;28;20782;-74
2023/07/08 02:03:36;;;;;;;11.57;5.60;;;21.50;20.20;;;;;;5094866;28;20443;-73
2023/07/08 02:06:02;;;;;;;12.38;6.10;;;21.40;20.30;;;;;;5094651;28;20386;-74
2023/07/08 02:08:27;;;;;;;6.75;5.20;;;21.30;20.30;;;;;;5094846;28;20421;-73
2023/07/08 02:10:58;;;;;;;9.30;5.70;;;21.30;20.50;;;;;;5078862;28;20401;-74
2023/07/08 02:13:24;;;;;;;8.07;5.50;;;21.30;20.20;;;;;;5093566;28;20406;-75
2023/07/08 02:15:50;;;;;;;9.45;6.00;;;21.30;20.90;;;;;;5092588;28;20374;-74
2023/07/08 02:18:15;;;;;;;8.15;5.30;;;21.20;20.30;;;;;;5093230;28;20381;-74
2023/07/08 02:20:42;;;;;;;8.37;5.40;;;21.30;21.60;;;;;;5093405;28;20740;-74
2023/07/08 02:23:08;;;;;;;8.23;5.30;;;21.40;21.40;;;;;;5092887;28;20851;-73
2023/07/08 02:25:34;;;;;;;7.13;5.40;;;21.40;21.30;;;;;;5092987;28;20432;-74
2023/07/08 02:27:59;;;;;;;7.40;5.00;;;21.50;21.10;;;;;;5074927;28;20378;-73
2023/07/08 02:30:27;;;;;;;10.18;5.70;;;21.70;20.60;;;;;;5092425;28;22768;-75
2023/07/08 02:32:59;;;;;;;7.78;5.15;;;21.60;21.10;;;;;;5092801;28;20507;-74
2023/07/08 02:35:29;;;;;;;8.18;4.88;;;21.40;22.00;;;;;;5093212;28;20899;-74
2023/07/08 02:37:56;;;;;;;8.88;4.72;;;21.30;22.80;;;;;;5092782;28;20800;-74
2023/07/08 02:40:22;;;;;;;7.60;5.00;;;21.10;23.00;;;;;;5092883;28;20398;-75
2023/07/08 02:42:48;;;;;;;7.87;4.90;;;21.10;23.50;;;;;;5074272;28;20397;-75
2023/07/08 02:45:15;;;;;;;8.55;5.18;;;21.00;23.60;;;;;;5074351;28;20398;-74
2023/07/08 02:47:41;;;;;;;8.80;5.30;;;20.90;23.50;;;;;;5074485;28;20386;-73
2023/07/08 02:50:08;;;;;;;9.80;5.60;;;20.90;23.50;;;;;;5092598;28;20443;-74
2023/07/08 02:52:34;;;;;;;8.97;5.30;;;20.90;23.30;;;;;;5092445;28;20795;-74
2023/07/08 02:55:00;;;;;;;10.00;5.17;;;21.30;21.90;;;;;;5092775;28;20433;-73
2023/07/08 02:57:25;;;;;;;8.82;5.00;;;21.10;21.70;;;;;;5092671;28;20381;-74
2023/07/08 02:59:51;;;;;;;8.00;4.60;;;20.90;22.10;;;;;;5093469;28;20378;-73
2023/07/08 03:02:16;;;;;;;8.57;5.28;;;20.80;22.10;;;;;;5093208;28;20389;-74
2023/07/08 03:04:42;;;;;;;9.13;4.93;;;20.80;22.40;;;;;;5093125;28;20738;-74
2023/07/08 03:07:11;;;;;;;7.82;4.60;;;20.90;22.40;;;;;;5093160;28;20386;-73
2023/07/08 03:09:38;;;;;;;12.05;5.70;;;21.00;22.20;;;;;;5095524;28;20395;-73
2023/07/08 03:12:05;;;;;;;9.55;5.38;;;20.90;22.70;;;;;;5096709;28;20772;-74
2023/07/08 03:14:31;;;;;;;7.70;4.90;;;20.90;22.70;;;;;;5092647;28;20410;-73
2023/07/08 03:16:56;;;;;;;7.70;5.40;;;21.00;22.00;;;;;;5092444;28;20788;-74
2023/07/08 03:19:22;;;;;;;7.35;5.28;;;21.30;20.90;;;;;;5092492;28;20374;-74
2023/07/08 03:21:48;;;;;;;8.83;4.67;;;21.30;21.30;;;;;;5092509;28;20382;-75
2023/07/08 03:24:13;;;;;;;8.73;4.90;;;21.20;21.30;;;;;;5092947;28;20418;-74
2023/07/08 03:26:39;;;;;;;8.95;5.60;;;21.00;22.00;;;;;;5073605;28;20398;-74
2023/07/08 03:29:08;;;;;;;9.73;5.70;;;20.80;22.80;;;;;;5091445;28;20374;-73
2023/07/08 03:31:34;;;;;;;6.70;4.82;;;20.60;23.20;;;;;;5091479;28;20374;-74
2023/07/08 03:33:59;;;;;;;6.70;5.00;;;20.60;23.60;;;;;;5091544;28;20405;-74
2023/07/08 03:36:26;;;;;;;8.90;5.70;;;20.50;24.30;;;;;;5092653;28;20751;-74
2023/07/08 03:38:53;;;;;;;7.30;4.78;;;20.50;24.60;;;;;;5092861;28;20378;-74
2023/07/08 03:41:19;;;;;;;7.90;5.70;;;20.50;24.60;;;;;;5092457;28;20369;-74
2023/07/08 03:43:44;;;;;;;10.30;5.40;;;20.50;24.60;;;;;;5093137;28;20374;-73
2023/07/08 03:46:11;;;;;;;8.73;5.37;;;20.50;24.80;;;;;;5093066;28;20490;-74
2023/07/08 03:48:37;;;;;;;10.05;5.40;;;20.40;24.90;;;;;;5091890;28;20446;-74
2023/07/08 03:51:04;;;;;;;9.30;5.30;;;20.40;25.00;;;;;;5091390;28;20672;-73
2023/07/08 03:53:29;;;;;;;8.30;5.50;;;20.40;25.40;;;;;;5073007;28;20405;-74
2023/07/08 03:55:55;;;;;;;11.70;5.10;;;20.40;25.40;;;;;;5091202;28;20858;-74
2023/07/08 03:58:20;;;;;;;7.30;5.40;;;20.40;25.60;;;;;;5091302;28;20381;-74
2023/07/08 04:00:46;;;;;;;9.53;5.83;;;20.30;25.90;;;;;;5091314;28;20436;-74
2023/07/08 04:03:11;;;;;;;6.30;4.80;;;20.30;26.10;;;;;;5091107;28;20377;-75
2023/07/08 04:05:37;;;;;;;9.83;5.60;;;20.30;26.40;;;;;;5091473;28;20417;-75
2023/07/08 04:08:02;;;;;;;8.77;4.78;;;20.20;26.50;;;;;;5091338;28;20375;-75
2023/07/08 04:10:28;;;;;;;10.43;5.77;;;20.20;26.80;;;;;;5091193;28;20386;-74
2023/07/08 04:12:53;;;;;;;8.93;5.30;;;20.10;27.20;;;;;;5090701;28;20382;-73
2023/07/08 04:15:25;;;;;;;9.43;6.20;;;20.10;27.40;;;;;;5091372;28;20402;-75
2023/07/08 04:17:51;;;;;;;12.35;5.88;;;20.10;27.40;;;;;;5073561;28;20401;-75
2023/07/08 04:20:18;;;;;;;12.20;6.70;;;20.10;27.40;;;;;;5091294;28;20375;-76
2023/07/08 04:22:45;;;;;;;6.70;5.32;;;20.10;27.90;;;;;;5091141;28;20468;-75
2023/07/08 04:25:12;;;;;;;9.10;5.80;;;20.10;28.50;;;;;;5091233;28;20436;-74
2023/07/08 04:27:38;;;;;;;7.80;5.20;;;20.10;28.60;;;;;;5073717;28;20386;-76
2023/07/08 04:30:05;;;;;;;10.85;6.07;;;20.10;28.50;;;;;;5091751;28;20783;-75
2023/07/08 04:32:30;;;;;;;11.20;5.50;;;20.10;28.30;;;;;;5090875;28;20858;-74
2023/07/08 04:34:56;;;;;;;8.20;5.17;;;20.20;28.10;;;;;;5090959;28;20416;-74
2023/07/08 04:37:21;;;;;;;7.88;5.47;;;20.30;27.40;;;;;;5090959;28;20437;-74
2023/07/08 04:39:47;;;;;;;8.80;5.50;;;20.40;27.10;;;;;;5090777;28;20835;-74
2023/07/08 04:42:15;;;;;;;6.70;5.20;;;20.40;26.90;;;;;;5090424;28;20389;-74
2023/07/08 04:44:41;;;;;;;11.20;5.60;;;20.60;26.50;;;;;;5090670;28;20880;-74
2023/07/08 04:47:08;;;;;;;8.53;5.23;;;20.60;26.20;;;;;;5090611;28;20828;-74
2023/07/08 04:49:35;;;;;;;7.10;5.50;;;20.70;26.00;;;;;;5090512;28;20789;-74
2023/07/08 04:52:01;;;;;;;8.50;5.65;;;20.80;25.70;;;;;;5072487;28;20411;-75
2023/07/08 04:54:28;;;;;;;7.72;5.68;;;20.80;25.50;;;;;;5090493;28;20405;-74
2023/07/08 04:56:53;;;;;;;9.93;5.70;;;20.80;25.50;;;;;;5090450;28;20381;-73
2023/07/08 04:59:22;;;;;;;10.40;5.90;;;20.90;25.70;;;;;;5090647;28;20378;-73
2023/07/08 05:01:48;;;;;;;14.93;5.90;;;21.10;24.80;;;;;;5090205;28;20422;-74
2023/07/08 05:04:16;;;;;;;8.40;5.80;;;21.10;24.00;;;;;;5090398;28;20792;-74
2023/07/08 05:06:42;;;;;;;8.63;5.70;;;21.20;23.60;;;;;;5090539;28;20742;-74
2023/07/08 05:09:08;;;;;;;10.13;5.45;;;21.10;23.40;;;;;;5090407;28;20378;-73
2023/07/08 05:11:34;;;;;;;7.17;5.17;;;21.30;23.20;;;;;;5071898;28;20389;-74
2023/07/08 05:14:00;;;;;;;8.27;5.25;;;21.30;23.50;;;;;;5090000;28;20414;-74
2023/07/08 05:16:26;;;;;;;9.45;5.55;;;21.40;23.50;;;;;;5090218;28;20873;-73
2023/07/08 05:18:51;;;;;;;11.30;5.50;;;21.50;22.60;;;;;;5090154;28;20378;-73
2023/07/08 05:21:19;;;;;;;10.30;5.60;;;21.80;22.00;;;;;;5089906;28;20854;-75
2023/07/08 05:23:45;;;;;;;8.25;5.40;;;21.80;22.00;;;;;;5089893;28;20386;-75
2023/07/08 05:26:10;;;;;;;9.25;5.68;;;21.90;20.90;;;;;;5089922;28;20388;-73
2023/07/08 05:28:36;;;;;;;9.43;5.20;;;22.00;20.00;;;;;;5089943;28;20374;-74
2023/07/08 05:31:02;;;;;;;10.63;5.70;;;22.20;19.90;;;;;;5089763;28;20851;-75
2023/07/08 05:33:30;;;;;;;8.53;5.40;;;22.30;19.50;;;;;;5089717;28;20496;-74
2023/07/08 05:35:56;;;;;;;7.25;5.00;;;22.40;19.00;;;;;;5089857;28;20382;-74
2023/07/08 05:38:22;;;;;;;7.63;5.50;;;22.50;19.00;;;;;;5090863;28;20750;-76
2023/07/08 05:40:53;;;;;;;9.57;5.13;;;22.60;19.50;;;;;;5089883;28;20429;-74
2023/07/08 05:43:19;;;;;;;8.60;5.53;;;22.70;19.00;;;;;;5090090;28;20378;-74
2023/07/08 05:45:45;;;;;;;10.63;5.70;;;22.80;18.70;;;;;;5089770;28;20400;-75
2023/07/08 05:48:10;;;;;;;9.07;5.65;;;23.00;17.90;;;;;;5090222;28;20507;-75
2023/07/08 05:50:36;;;;;;;9.33;5.43;;;23.00;17.10;;;;;;5090384;28;20894;-74
2023/07/08 05:53:01;;;;;;;7.95;5.20;;;23.20;17.30;;;;;;5093526;28;20443;-74
2023/07/08 05:55:27;;;;;;;8.57;5.53;;;23.20;16.80;;;;;;5075301;28;20450;-75
2023/07/08 05:57:53;;;;;;;6.63;5.47;;;23.40;16.20;;;;;;5093853;28;20382;-74
2023/07/08 06:00:18;;;;;;;8.68;5.70;;;23.20;16.60;;;;;;5093577;28;20410;-75
2023/07/08 06:02:44;;;;;;;7.93;5.30;;;23.00;16.90;;;;;;5093613;28;20402;-75
2023/07/08 06:05:09;;;;;;;8.10;5.70;;;23.00;17.00;;;;;;5093321;28;20385;-74
2023/07/08 06:07:35;;;;;;;10.50;5.50;;;22.90;16.70;;;;;;5093198;28;20708;-75
2023/07/08 06:10:01;;;;;;;10.57;5.90;;;22.90;17.10;;;;;;5093644;28;20385;-75
2023/07/08 06:12:27;;;;;;;7.47;5.10;;;23.00;16.80;;;;;;5093431;28;20386;-75
2023/07/08 06:14:53;;;;;;;10.60;5.97;;;23.00;16.80;;;;;;5093152;28;20463;-73
2023/07/08 06:17:18;;;;;;;8.35;5.50;;;23.10;16.60;;;;;;5093424;28;20378;-75
2023/07/08 06:19:44;;;;;;;8.27;5.83;;;23.20;15.90;;;;;;5093515;28;20397;-75
2023/07/08 06:22:10;;;;;;;7.60;5.60;;;23.30;15.50;;;;;;5093172;28;20392;-74
2023/07/08 06:24:35;;;;;;;10.63;6.10;;;23.50;15.00;;;;;;5093013;28;20450;-75
2023/07/08 06:27:01;;;;;;;10.13;6.45;;;23.50;15.30;;;;;;5093270;28;20385;-75
2023/07/08 06:29:27;;;;;;;10.80;5.70;;;23.70;14.60;;;;;;5074831;28;20739;-73
2023/07/08 06:31:52;;;;;;;10.53;6.20;;;23.90;14.30;;;;;;5092724;28;20557;-75
2023/07/08 06:34:19;;;;;;;12.18;5.90;;;24.20;14.30;;;;;;5092803;28;20466;-75
2023/07/08 06:36:45;;;;;;;12.90;5.97;;;24.20;14.00;;;;;;5092842;28;20414;-73
2023/07/08 06:39:11;;;;;;;8.18;5.40;;;24.30;14.10;;;;;;5093197;28;20443;-74
2023/07/08 06:41:37;;;;;;;10.27;6.25;;;24.40;13.60;;;;;;5093358;28;20382;-74
2023/07/08 06:44:03;;;;;;;8.63;6.40;;;24.50;13.50;;;;;;5092913;28;21064;-74
2023/07/08 06:46:29;;;;;;;7.93;6.00;;;24.60;13.50;;;;;;5074691;28;20382;-75
2023/07/08 06:48:55;;;;;;;9.50;5.50;;;24.60;13.10;;;;;;5092806;28;20393;-73
2023/07/08 06:51:21;;;;;;;9.55;5.88;;;24.70;13.20;;;;;;5092841;28;20385;-74
2023/07/08 06:53:46;;;;;;;7.40;5.97;;;24.90;13.10;;;;;;5092711;28;20493;-75
2023/07/08 06:56:12;;;;;;;7.50;5.47;;;24.90;12.60;;;;;;5074593;28;20421;-76
2023/07/08 06:58:38;;;;;;;9.75;5.90;;;25.00;12.60;;;;;;5092435;28;20374;-73
2023/07/08 07:01:04;;;;;;;13.43;6.20;;;25.10;13.30;;;;;;5092369;28;20822;-75
2023/07/08 07:03:29;;;;;;;10.48;6.05;;;25.20;12.70;;;;;;5073156;28;20386;-74
2023/07/08 07:05:55;;;;;;;13.00;6.45;;;25.20;13.00;;;;;;5092514;28;20579;-74
2023/07/08 07:08:21;;;;;;;9.23;5.87;;;25.20;12.10;;;;;;5092725;28;20409;-75
2023/07/08 07:10:46;;;;;;;11.20;6.80;;;25.20;11.60;;;;;;5092300;28;20386;-74
2023/07/08 07:15:48;;;;;;;7.97;5.75;;;25.60;11.20;;;;;;5050730;28;20421;-70
2023/07/08 07:18:13;;;;;;;8.85;6.13;;;25.60;10.50;;;;;;5053915;28;20382;-72
2023/07/08 07:20:50;;;;;;;10.87;5.80;;;25.70;10.40;;;;;;5053556;28;20494;-71
2023/07/08 07:23:17;;;;;;;11.20;6.20;;;25.80;10.30;;;;;;5057492;28;20378;-71
2023/07/08 07:25:44;;;;;;;12.15;6.68;;;25.90;9.20;;;;;;5059247;28;20385;-72
2023/07/08 07:28:09;;;;;;;9.77;5.63;;;25.90;9.20;;;;;;5059319;28;20386;-70
2023/07/08 07:30:35;;;;;;;10.35;6.47;;;26.00;10.00;;;;;;5060835;28;20369;-72
2023/07/08 07:33:01;;;;;;;7.47;6.10;;;26.10;10.30;;;;;;5056681;28;20837;-72
2023/07/08 07:35:27;;;;;;;12.15;6.63;;;26.20;9.50;;;;;;5053094;28;20870;-71
2023/07/08 07:37:52;;;;;;;10.00;6.45;;;26.30;8.90;;;;;;5053108;28;20480;-73
2023/07/08 07:40:18;;;;;;;12.07;7.20;;;26.30;9.20;;;;;;5052505;28;20903;-72
2023/07/08 07:42:45;;;;;;;9.00;6.10;;;26.40;8.10;;;;;;5053133;28;20442;-71
2023/07/08 07:45:12;;;;;;;11.88;7.22;;;26.50;8.50;;;;;;5063535;28;20873;-71
2023/07/08 07:47:39;;;;;;;9.80;6.20;;;26.50;7.80;;;;;;5061478;28;20492;-72
2023/07/08 07:50:06;;;;;;;9.50;6.60;;;26.60;8.50;;;;;;5042243;28;20770;-73
2023/07/08 07:52:32;;;;;;;11.20;6.60;;;26.70;7.80;;;;;;5057463;28;20413;-72
2023/07/08 07:54:58;;;;;;;12.75;6.90;;;26.80;8.10;;;;;;5057268;28;20397;-71
2023/07/08 07:57:24;;;;;;;8.77;6.63;;;27.00;8.30;;;;;;5058775;28;20393;-72
2023/07/08 07:59:50;;;;;;;10.77;7.00;;;27.10;7.80;;;;;;5056359;28;20385;-70
2023/07/08 08:02:16;;;;;;;11.80;6.67;;;27.10;6.40;;;;;;5051465;28;20500;-72
2023/07/08 08:04:41;;;;;;;11.65;7.43;;;27.20;6.40;;;;;;5051469;28;20381;-71
2023/07/08 08:07:07;;;;;;;10.18;6.90;;;27.30;5.70;;;;;;5051791;28;20762;-72
2023/07/08 08:09:33;;;;;;;16.03;7.20;;;27.40;5.10;;;;;;5051374;28;20562;-71
2023/07/08 08:12:01;;;;;;;9.68;7.00;;;27.50;5.30;;;;;;5051160;28;20390;-70
2023/07/08 08:14:27;;;;;;;15.63;7.10;;;27.60;4.70;;;;;;5050601;28;20470;-70
2023/07/08 08:16:52;;;;;;;11.20;7.40;;;27.60;5.00;;;;;;5051582;28;20793;-71
2023/07/08 08:19:18;;;;;;;11.90;7.13;;;27.70;4.30;;;;;;5050962;28;20904;-72
2023/07/08 08:21:44;;;;;;;11.10;6.70;;;27.80;4.30;;;;;;5051255;28;20389;-71
2023/07/08 08:24:10;;;;;;;11.90;7.20;;;27.80;4.50;;;;;;5051610;28;20391;-69
2023/07/08 08:26:35;;;;;;;8.20;6.23;;;27.90;4.60;;;;;;5051393;28;20380;-70
2023/07/08 08:29:01;;;;;;;11.07;7.45;;;28.00;5.20;;;;;;5052024;28;20468;-70
2023/07/08 08:31:27;;;;;;;13.27;7.22;;;28.00;5.10;;;;;;5051421;28;20384;-72
2023/07/08 08:33:53;;;;;;;14.47;7.90;;;28.00;5.10;;;;;;5051558;28;20401;-71
2023/07/08 08:36:20;;;;;;;11.95;6.53;;;28.20;5.30;;;;;;5051505;28;20739;-70
2023/07/08 08:38:47;;;;;;;12.27;7.72;;;28.30;4.60;;;;;;5051638;28;20780;-72
2023/07/08 08:41:15;;;;;;;11.35;6.90;;;28.30;4.80;;;;;;5051293;28;20408;-71
2023/07/08 08:43:43;;;;;;;11.43;6.85;;;28.40;5.20;;;;;;5051007;28;20381;-72
2023/07/08 08:46:27;;;;;;;13.60;7.57;;;28.40;4.30;;;;;;5050875;28;20385;-71
2023/07/08 08:49:11;;;;;;;10.50;7.22;;;28.60;3.90;;;;;;5050750;28;20983;-71
2023/07/08 08:51:36;;;;;;;16.13;7.13;;;28.60;4.30;;;;;;5050829;28;20396;-73
2023/07/08 08:54:02;;;;;;;9.40;7.30;;;28.80;3.70;;;;;;5050624;28;20496;-70
2023/07/08 08:56:34;;;;;;;10.23;7.10;;;29.10;3.80;;;;;;5050810;28;20385;-71
2023/07/08 08:59:25;;;;;;;9.40;7.20;;;29.30;3.20;;;;;;5032938;28;20400;-72
2023/07/08 09:01:51;;;;;;;10.23;7.23;;;29.60;3.30;;;;;;5050252;28;20407;-71
2023/07/08 09:04:23;;;;;;;10.57;6.80;;;29.70;2.80;;;;;;5050730;28;20742;-71
2023/07/08 09:06:50;;;;;;;12.50;7.20;;;29.90;2.30;;;;;;5050399;28;20522;-71
2023/07/08 09:09:46;;;;;;;10.65;6.95;;;29.80;2.30;;;;;;5050495;28;20381;-72
2023/07/08 09:12:23;;;;;;;19.55;6.82;;;29.70;2.70;;;;;;5012223;28;20480;-69
2023/07/08 09:14:50;;;;;;;12.38;6.47;;;29.60;2.10;;;;;;5050010;28;20412;-70
2023/07/08 09:17:34;;;;;;;9.05;6.65;;;29.50;3.00;;;;;;5050206;28;20829;-70
2023/07/08 09:20:03;;;;;;;9.35;6.70;;;29.40;2.70;;;;;;5050388;28;20901;-70
2023/07/08 09:22:42;;;;;;;12.17;6.67;;;29.50;3.30;;;;;;5050417;28;20782;-70
2023/07/08 09:25:40;;;;;;;11.33;6.50;;;29.60;2.50;;;;;;5032613;28;20438;-71
2023/07/08 09:28:07;;;;;;;11.65;6.97;;;29.50;2.50;;;;;;5032327;28;20393;-71
2023/07/08 09:30:33;;;;;;;10.05;6.55;;;29.60;2.40;;;;;;5053697;28;20476;-71
2023/07/08 09:33:03;;;;;;;8.70;6.03;;;29.50;2.10;;;;;;5053592;28;20836;-71
2023/07/08 09:35:37;;;;;;;9.07;5.90;;;29.40;2.30;;;;;;5053941;28;20401;-70
2023/07/08 09:38:08;;;;;;;7.00;5.80;;;29.30;2.20;;;;;;5054237;28;20889;-70
2023/07/08 09:40:34;;;;;;;9.98;6.07;;;29.20;2.80;;;;;;5053996;28;20789;-71
2023/07/08 09:43:20;;;;;;;10.10;5.80;;;29.00;3.10;;;;;;5053922;28;20528;-71
2023/07/08 09:45:48;;;;;;;9.20;5.80;;;28.90;2.60;;;;;;5053847;28;20719;-71
2023/07/08 09:48:23;;;;;;;7.15;5.60;;;29.10;3.40;;;;;;5054525;28;20377;-71
2023/07/08 09:50:51;;;;;;;10.55;5.82;;;29.40;2.90;;;;;;5062607;28;20377;-73
2023/07/08 09:53:17;;;;;;;11.07;6.32;;;29.50;2.50;;;;;;5068945;28;20381;-74
2023/07/08 09:55:43;;;;;;;7.27;5.50;;;29.60;2.50;;;;;;5061684;28;20386;-72
2023/07/08 09:58:17;;;;;;;7.35;5.78;;;29.70;2.30;;;;;;5053866;28;20388;-70
2023/07/08 10:00:43;;;;;;;11.77;5.70;;;29.80;2.90;;;;;;5048744;28;20484;-72
2023/07/08 10:03:17;;;;;;;10.17;6.20;;;29.90;2.50;;;;;;5053192;28;20465;-72
2023/07/08 10:05:46;;;;;;;7.95;5.85;;;30.10;2.50;;;;;;5053148;28;20404;-70
2023/07/08 10:08:19;;;;;;;10.13;6.55;;;30.20;3.00;;;;;;5053710;28;20991;-71
2023/07/08 10:11:00;;;;;;;11.70;6.20;;;30.20;2.90;;;;;;5053487;28;20473;-71
2023/07/08 10:13:42;;;;;;;8.02;5.60;;;30.20;3.10;;;;;;5052908;28;20412;-71
2023/07/08 10:16:21;;;;;;;13.20;6.23;;;30.30;2.50;;;;;;5053245;28;20416;-71
2023/07/08 10:18:46;;;;;;;10.60;6.75;;;30.30;2.00;;;;;;5024026;28;20383;-73
2023/07/08 10:21:30;;;;;;;8.97;5.93;;;30.40;1.90;;;;;;5033576;28;20437;-71
2023/07/08 10:24:20;;;;;;;11.05;5.88;;;30.50;1.80;;;;;;5033419;28;20395;-69
2023/07/08 10:27:04;;;;;;;11.47;6.20;;;30.50;2.20;;;;;;5032949;28;20487;-71
2023/07/08 10:29:52;;;;;;;9.43;5.95;;;30.70;2.20;;;;;;5032305;28;20823;-71
2023/07/08 10:32:24;;;;;;;10.40;5.65;;;30.70;1.70;;;;;;5032155;28;20553;-72
2023/07/08 10:35:15;;;;;;;8.25;6.07;;;30.90;1.70;;;;;;5049261;28;20401;-72
2023/07/08 10:37:40;;;;;;;9.40;6.40;;;30.90;1.70;;;;;;5051952;28;20799;-72
2023/07/08 10:40:21;;;;;;;13.70;6.50;;;31.00;2.30;;;;;;5051455;28;20553;-74
2023/07/08 10:42:55;;;;;;;8.30;5.60;;;31.20;2.20;;;;;;5050808;28;20385;-70
2023/07/08 10:45:32;;;;;;;12.15;6.28;;;31.20;1.50;;;;;;5051229;28;20482;-70
2023/07/08 10:48:19;;;;;;;8.38;5.70;;;31.10;1.50;;;;;;5033058;28;20386;-73
2023/07/08 10:50:47;;;;;;;7.30;5.53;;;31.20;1.60;;;;;;5050601;28;20919;-72
2023/07/08 10:53:36;;;;;;;12.20;6.20;;;31.30;1.70;;;;;;5050812;28;20424;-72
2023/07/08 10:56:32;;;;;;;8.52;5.78;;;31.30;1.50;;;;;;5052641;28;20386;-72
2023/07/08 10:59:18;;;;;;;8.45;6.10;;;31.40;1.70;;;;;;5034748;28;20423;-71
2023/07/08 11:02:13;;;;;;;14.35;5.65;;;31.50;1.70;;;;;;5052338;28;20476;-71
2023/07/08 11:04:59;;;;;;;12.70;6.55;;;31.50;1.00;;;;;;5052327;28;20387;-72
2023/07/08 11:07:40;;;;;;;12.30;5.88;;;31.60;1.00;;;;;;5052324;28;20447;-71
2023/07/08 11:10:17;;;;;;;7.63;5.80;;;31.60;1.30;;;;;;5052583;28;20495;-72
2023/07/08 11:13:13;;;;;;;8.20;5.78;;;31.60;1.30;;;;;;5052293;28;20432;-70
2023/07/08 11:16:01;;;;;;;11.88;6.18;;;31.70;1.00;;;;;;5052421;28;20409;-70
2023/07/08 11:18:50;;;;;;;7.90;5.90;;;31.70;1.10;;;;;;5053528;28;20381;-73
2023/07/08 11:21:32;;;;;;;8.80;6.25;;;31.80;1.30;;;;;;5052312;28;20391;-72
2023/07/08 11:24:20;;;;;;;9.05;5.93;;;31.80;1.00;;;;;;5052346;28;20378;-73
2023/07/08 11:27:35;;;;;;;8.50;6.25;;;31.80;1.00;;;;;;5051866;28;20385;-72
2023/07/08 11:30:12;;;;;;;8.35;5.93;;;32.00;1.80;;;;;;5048184;28;20402;-72
2023/07/08 11:32:40;;;;;;;5.80;4.72;;;32.10;1.00;;;;;;5051995;28;20810;-71
2023/07/08 11:35:19;;;;;;;10.32;5.72;;;32.20;1.00;;;;;;5051860;28;20480;-72
2023/07/08 11:37:46;;;;;;;7.28;5.50;;;32.20;1.00;;;;;;5052479;28;20385;-71
2023/07/08 11:40:21;;;;;;;6.80;5.20;;;32.30;1.00;;;;;;5051623;28;20504;-73
2023/07/08 11:42:52;;;;;;;11.48;6.20;;;32.40;1.00;;;;;;5051727;28;20377;-72
2023/07/08 11:45:18;;;;;;;9.20;6.10;;;32.30;1.00;;;;;;5051811;28;20436;-72
2023/07/08 11:47:48;;;;;;;9.20;5.80;;;32.50;1.00;;;;;;5051257;28;20400;-71
2023/07/08 11:50:32;;;;;;;7.05;5.47;;;32.50;1.00;;;;;;5051813;28;20405;-71
2023/07/08 11:53:06;;;;;;;9.75;5.78;;;32.60;1.00;;;;;;5051598;28;20389;-72
2023/07/08 11:55:56;;;;;;;8.38;5.40;;;32.60;1.00;;;;;;5051965;28;20937;-72
2023/07/08 11:58:22;;;;;;;10.15;6.25;;;32.90;1.00;;;;;;5051804;28;20811;-71
2023/07/08 12:01:09;;;;;;;13.20;6.28;;;33.00;1.00;;;;;;5051368;28;20412;-75
2023/07/08 12:03:37;;;;;;;9.07;5.70;;;32.90;1.00;;;;;;5051709;28;20734;-73
2023/07/08 12:06:26;;;;;;;8.60;6.00;;;32.90;1.00;;;;;;5051608;28;20381;-73
2023/07/08 12:08:53;;;;;;;8.20;5.70;;;33.00;1.00;;;;;;5051868;28;20443;-71
2023/07/08 12:11:30;;;;;;;9.38;5.50;;;32.90;1.00;;;;;;5046433;28;20456;-71
2023/07/08 12:13:58;;;;;;;15.35;6.10;;;33.10;1.00;;;;;;5039809;28;20959;-70
2023/07/08 12:16:25;;;;;;;10.45;5.60;;;33.20;1.00;;;;;;5051208;28;20385;-70
2023/07/08 12:18:52;;;;;;;8.07;5.60;;;33.30;1.00;;;;;;5053651;28;20405;-70
2023/07/08 12:21:18;;;;;;;8.02;5.78;;;33.40;1.00;;;;;;5039163;28;20761;-72
2023/07/08 12:23:46;;;;;;;11.05;5.50;;;33.30;1.00;;;;;;5051184;28;20853;-71
2023/07/08 12:26:11;;;;;;;7.68;5.80;;;33.50;1.00;;;;;;5050660;28;20397;-71
2023/07/08 12:28:39;;;;;;;8.23;5.43;;;33.50;1.00;;;;;;5033079;28;20405;-70
2023/07/08 12:31:18;;;;;;;10.00;5.20;;;33.60;1.00;;;;;;5046925;28;20450;-70
2023/07/08 12:33:44;;;;;;;9.90;5.78;;;33.60;1.00;;;;;;5030725;28;20871;-70
2023/07/08 12:36:25;;;;;;;9.60;5.50;;;33.70;1.00;;;;;;5043604;28;20460;-70
2023/07/08 12:38:52;;;;;;;7.40;5.40;;;33.70;1.00;;;;;;5050852;28;20915;-74
2023/07/08 12:41:23;;;;;;;7.53;5.32;;;33.70;1.00;;;;;;5051164;28;20378;-74
2023/07/08 12:43:50;;;;;;;9.02;5.35;;;33.80;1.00;;;;;;5051669;28;20790;-76
2023/07/08 12:46:19;;;;;;;6.40;5.30;;;34.00;1.00;;;;;;5050886;28;20405;-73
2023/07/08 12:48:44;;;;;;;6.07;5.13;;;34.00;1.00;;;;;;5051050;28;20762;-74
2023/07/08 12:51:25;;;;;;;10.40;5.55;;;34.10;1.00;;;;;;5051330;28;20381;-73
2023/07/08 12:53:52;;;;;;;6.63;4.95;;;34.00;1.00;;;;;;5050833;28;20448;-72
2023/07/08 12:56:19;;;;;;;9.13;5.57;;;34.10;1.00;;;;;;5054432;28;20400;-71
2023/07/08 12:58:50;;;;;;;8.18;4.60;;;34.20;1.00;;;;;;5035976;28;20443;-72
2023/07/08 13:01:25;;;;;;;10.07;5.28;;;34.20;1.00;;;;;;5054408;28;20391;-71
2023/07/08 13:03:54;;;;;;;12.23;7.57;;;34.20;1.00;;;;;;5035459;28;20493;-73
2023/07/08 13:06:25;;;;;;;12.05;5.57;;;34.20;1.00;;;;;;5053661;28;20466;-70